Darstellungsparameter: Aktuell verwendete Einstellungen:
Skalierung der Graphiken ... ?
xyx+y,   Skalierungsfaktor:      Skalierung: Modus: x, Faktor: 1
Darstellungszeitraum ... ?
Vom - - bis: - -   Zeitraum: 03.09.2004 - 07.09.2004
Min/Max/Avg-Anzeige ... ?
Zeige MMA aktuell
Zeige MMA Monat
Zeige MMA alles
Zeige --A aktuell
Zeige --A Monat
Zeige --A alles
Keine MMA-Anzeige
MMA:
Keine MMA-Graphiken
MMA-Basis: 03.09.2004 - 07.09.2004
Quicknavigation für Darstellung... ?
Tage:      1T, 2T, 3T, 5T -1T -2T -3T -5T +1T +2T +3T +5T
Wochen: 1W, 2W, 3W -1W -2W -3W +1W +2W +3W
Monate: 1M, 3M, 6M -1M -3M -6M +1M +3M +6M
Jahre:    1J, 3J, 5J, 10J -1J -3J -5J -10J +1J +3J +5J +10J
Nutze für die Darstellung ... ?
Originaldaten oder Mittelwerte auf ...
Stundenbasis Tagesbasis Wochenbasis
Monatsbasis Jahresbasis      Datenbasis: Original-Daten
Darstellen als:
Statistik (Auto) Statistik J:M      Darstellung:
Zur Graphik,    zurück zur Übersicht aller Sensoren.
 
Tabellarische Datenbersicht: ?
 
Sensor: Nr:Datum:Temp:Abs-Feuchte:Windchill:Wind:
Aussen-T/F 1 03-09-2004 00:06:59 15.9 C 10.56 g/m*3 15.9 C 0 km/h
2 03-09-2004 00:30:00 15.6 C 10.51 g/m*3 15.6 C 0 km/h
3 03-09-2004 00:30:59 15.4 C 10.51 g/m*3 15.4 C 0 km/h
4 03-09-2004 00:42:59 15.4 C 10.64 g/m*3 15.4 C 0 km/h
5 03-09-2004 00:54:59 15.1 C 10.45 g/m*3 15.1 C 0 km/h
6 03-09-2004 01:06:59 15.1 C 10.45 g/m*3 15.1 C 0 km/h
7 03-09-2004 01:18:59 14.9 C 10.45 g/m*3 14.9 C 0 km/h
8 03-09-2004 01:30:59 14.9 C 10.45 g/m*3 14.9 C 0 km/h
9 03-09-2004 01:42:59 14.7 C 10.45 g/m*3 14.7 C 0 km/h
10 03-09-2004 01:54:59 14.5 C 10.32 g/m*3 14.5 C 0 km/h
11 03-09-2004 02:06:58 14.4 C 10.26 g/m*3 14.4 C 0 km/h
12 03-09-2004 02:18:58 14.3 C 10.2 g/m*3 14.3 C 0 km/h
13 03-09-2004 02:30:58 14.2 C 10.26 g/m*3 14.2 C 0 km/h
14 03-09-2004 02:42:58 14 C 10.01 g/m*3 14 C 0 km/h
15 03-09-2004 02:55:00 14 C 10.13 g/m*3 14 C 0 km/h
16 03-09-2004 03:07:00 13.9 C 10.07 g/m*3 13.9 C 0 km/h
17 03-09-2004 03:19:00 13.9 C 10.19 g/m*3 13.9 C 0 km/h
18 03-09-2004 03:31:00 13.7 C 9.95 g/m*3 13.7 C 0 km/h
19 03-09-2004 03:43:00 13.6 C 10 g/m*3 13.6 C 0 km/h
20 03-09-2004 03:55:00 13.5 C 9.94 g/m*3 13.5 C 0 km/h
21 03-09-2004 04:07:00 13.4 C 9.88 g/m*3 13.4 C 0 km/h
22 03-09-2004 04:19:00 13.4 C 10 g/m*3 13.4 C 0 km/h
23 03-09-2004 04:31:00 13.2 C 9.76 g/m*3 13.2 C 0 km/h
24 03-09-2004 04:43:00 13.1 C 9.7 g/m*3 13.1 C 0 km/h
25 03-09-2004 04:55:00 13.2 C 9.87 g/m*3 13.2 C 0 km/h
Sensor: Nr:Datum:Temp:Abs-Feuchte:Windchill:Wind:
Aussen-T/F 26 03-09-2004 05:07:00 13 C 9.75 g/m*3 13 C 0 km/h
27 03-09-2004 05:19:00 12.9 C 9.81 g/m*3 12.9 C 0 km/h
28 03-09-2004 05:31:00 12.8 C 9.74 g/m*3 12.8 C 0 km/h
29 03-09-2004 05:43:00 12.7 C 9.68 g/m*3 12.7 C 0 km/h
30 03-09-2004 05:55:00 12.7 C 9.68 g/m*3 12.7 C 0 km/h
31 03-09-2004 06:07:00 12.8 C 9.86 g/m*3 12.8 C 0 km/h
32 03-09-2004 06:19:00 12.7 C 9.68 g/m*3 12.7 C 0 km/h
33 03-09-2004 06:31:00 12.7 C 9.8 g/m*3 12.7 C 0 km/h
34 03-09-2004 06:43:01 13 C 9.87 g/m*3 13 C 0 km/h
35 03-09-2004 06:55:00 13 C 9.75 g/m*3 13 C 0 km/h
36 03-09-2004 07:07:00 13 C 9.64 g/m*3 13 C 0 km/h
37 03-09-2004 07:19:00 13 C 9.64 g/m*3 13 C 0 km/h
38 03-09-2004 07:31:59 12.9 C 9.69 g/m*3 12.9 C 0 km/h
39 03-09-2004 07:43:59 13.1 C 9.81 g/m*3 13.1 C 0 km/h
40 03-09-2004 07:55:59 13.3 C 9.94 g/m*3 13.3 C 0 km/h
41 03-09-2004 08:07:59 13.5 C 9.94 g/m*3 13.5 C 0 km/h
42 03-09-2004 08:18:59 13.8 C 10.13 g/m*3 13.8 C 0 km/h
43 03-09-2004 08:31:00 13.8 C 10.01 g/m*3 13.8 C 0 km/h
44 03-09-2004 08:43:00 14.1 C 10.19 g/m*3 14.1 C 0 km/h
45 03-09-2004 08:55:00 14.8 C 10.64 g/m*3 14.8 C 0 km/h
46 03-09-2004 09:07:00 15.4 C 10.51 g/m*3 15.4 C 0 km/h
47 03-09-2004 09:19:00 15.2 C 10.25 g/m*3 15.2 C 0 km/h
48 03-09-2004 09:31:00 15.7 C 10.57 g/m*3 15.7 C 0 km/h
49 03-09-2004 09:43:00 15.7 C 10.3 g/m*3 15.7 C 0 km/h
50 03-09-2004 09:55:00 15.7 C 10.57 g/m*3 15.7 C 0 km/h
Sensor: Nr:Datum:Temp:Abs-Feuchte:Windchill:Wind:
Aussen-T/F 51 03-09-2004 10:07:00 16.3 C 10.41 g/m*3 16.3 C 0 km/h
52 03-09-2004 10:19:59 17.3 C 10.9 g/m*3 17.3 C 0 km/h
53 03-09-2004 10:31:59 18.2 C 10.57 g/m*3 18.2 C 0 km/h
54 03-09-2004 10:43:59 19.1 C 10.82 g/m*3 19.1 C 0 km/h
55 03-09-2004 10:55:59 19.7 C 11.21 g/m*3 19.7 C 0 km/h
56 03-09-2004 11:07:59 19.7 C 10.87 g/m*3 19.7 C 0 km/h
57 03-09-2004 11:19:59 20 C 11.58 g/m*3 20 C 0 km/h
58 03-09-2004 11:31:59 20.6 C 11.63 g/m*3 20.6 C 0 km/h
59 03-09-2004 11:43:59 21.1 C 11.98 g/m*3 21.1 C 0 km/h
60 03-09-2004 11:55:59 21.5 C 12.07 g/m*3 21.5 C 0 km/h
61 03-09-2004 12:07:59 22 C 12.42 g/m*3 22 C 0 km/h
62 03-09-2004 12:19:00 22.7 C 12.73 g/m*3 22.7 C 0 km/h
63 03-09-2004 12:31:00 22.9 C 12.47 g/m*3 22.9 C 0 km/h
64 03-09-2004 12:43:00 23.1 C 12.61 g/m*3 23.1 C 0 km/h
65 03-09-2004 12:55:00 23.4 C 13.25 g/m*3 23.4 C 0 km/h
66 03-09-2004 13:07:59 23.8 C 13.12 g/m*3 23.8 C 0 km/h
67 03-09-2004 13:19:59 24.3 C 13.28 g/m*3 24.3 C 0 km/h
68 03-09-2004 13:31:59 24.9 C 13.28 g/m*3 24.9 C 0 km/h
69 03-09-2004 13:43:59 25.5 C 11.84 g/m*3 25.5 C 0 km/h
70 03-09-2004 13:55:59 26.1 C 11.26 g/m*3 26.1 C 0 km/h
71 03-09-2004 14:07:59 26.5 C 12.02 g/m*3 26.5 C 0 km/h
72 03-09-2004 14:19:59 26.9 C 11.26 g/m*3 26.9 C 0 km/h
73 03-09-2004 14:31:59 27.6 C 10.64 g/m*3 27.6 C 0 km/h
74 03-09-2004 14:43:59 28.3 C 11.06 g/m*3 28.3 C 0 km/h
75 03-09-2004 14:55:59 28.6 C 11.24 g/m*3 28.6 C 0 km/h
Sensor: Nr:Datum:Temp:Abs-Feuchte:Windchill:Wind:
Aussen-T/F 76 03-09-2004 15:07:59 29.1 C 10.97 g/m*3 29.1 C 0 km/h
77 03-09-2004 15:19:59 29.6 C 11.28 g/m*3 29.6 C 0 km/h
78 03-09-2004 15:31:59 30 C 12.13 g/m*3 30 C 0 km/h
79 03-09-2004 15:43:59 30.2 C 11.96 g/m*3 30.2 C 0 km/h
80 03-09-2004 15:55:59 30.6 C 10.02 g/m*3 30.6 C 0 km/h
81 03-09-2004 16:07:58 30.6 C 10.65 g/m*3 30.6 C 0 km/h
82 03-09-2004 16:19:59 30.7 C 11.97 g/m*3 30.7 C 0 km/h
83 03-09-2004 16:31:59 30.4 C 12.39 g/m*3 30.4 C 0 km/h
84 03-09-2004 16:43:59 30.4 C 12.08 g/m*3 30.4 C 0 km/h
85 03-09-2004 16:55:59 28.9 C 12.86 g/m*3 28.9 C 0 km/h
86 03-09-2004 17:07:59 27.6 C 13.04 g/m*3 27.6 C 0 km/h
87 03-09-2004 17:19:59 27.5 C 12.7 g/m*3 27.5 C 0 km/h
88 03-09-2004 17:31:59 28.6 C 12.93 g/m*3 28.6 C 0 km/h
89 03-09-2004 17:43:59 29.3 C 12.85 g/m*3 29.3 C 0 km/h
90 03-09-2004 17:55:59 29.5 C 12.69 g/m*3 29.5 C 0 km/h
91 03-09-2004 18:07:59 29.4 C 12.62 g/m*3 29.4 C 0 km/h
92 03-09-2004 18:19:58 28.9 C 13.14 g/m*3 28.9 C 0 km/h
93 03-09-2004 18:31:58 28.6 C 12.65 g/m*3 28.6 C 0 km/h
94 03-09-2004 18:43:58 28.5 C 12.02 g/m*3 28.5 C 0 km/h
95 03-09-2004 18:55:58 28.6 C 12.65 g/m*3 28.6 C 0 km/h
96 03-09-2004 19:07:58 28.3 C 11.89 g/m*3 28.3 C 0 km/h
97 03-09-2004 19:19:58 27.5 C 12.7 g/m*3 27.5 C 0 km/h
98 03-09-2004 19:31:58 26.6 C 12.59 g/m*3 26.6 C 0 km/h
99 03-09-2004 19:43:58 25.6 C 13.09 g/m*3 25.6 C 0 km/h
100 03-09-2004 19:55:59 24 C 12.84 g/m*3 24 C 0 km/h
Sensor: Nr:Datum:Temp:Abs-Feuchte:Windchill:Wind:
Aussen-T/F 101 03-09-2004 20:07:59 23.5 C 13.11 g/m*3 23.5 C 0 km/h
102 03-09-2004 20:19:59 23.1 C 12.61 g/m*3 23.1 C 0 km/h
103 03-09-2004 20:31:59 22.7 C 12.73 g/m*3 22.7 C 0 km/h
104 03-09-2004 20:43:59 22.1 C 12.49 g/m*3 22.1 C 0 km/h
105 03-09-2004 20:55:59 21.9 C 12.93 g/m*3 21.9 C 0 km/h
106 03-09-2004 21:07:58 21.5 C 12.82 g/m*3 21.5 C 0 km/h
107 03-09-2004 21:19:58 21.3 C 12.68 g/m*3 21.3 C 0 km/h
108 03-09-2004 21:31:58 21.1 C 12.71 g/m*3 21.1 C 0 km/h
109 03-09-2004 21:43:58 21.1 C 12.53 g/m*3 21.1 C 0 km/h
110 03-09-2004 21:55:58 20.8 C 12.49 g/m*3 20.8 C 0 km/h
111 03-09-2004 22:07:58 20.7 C 12.78 g/m*3 20.7 C 0 km/h
112 03-09-2004 22:19:58 20.3 C 12.49 g/m*3 20.3 C 0 km/h
113 03-09-2004 22:31:58 20 C 12.44 g/m*3 20 C 0 km/h
114 03-09-2004 22:43:58 20 C 12.62 g/m*3 20 C 0 km/h
115 03-09-2004 22:55:58 19.7 C 12.57 g/m*3 19.7 C 0 km/h
116 03-09-2004 23:07:58 19.6 C 12.66 g/m*3 19.6 C 0 km/h
117 03-09-2004 23:19:58 19.4 C 12.51 g/m*3 19.4 C 0 km/h
118 03-09-2004 23:31:58 19.1 C 12.46 g/m*3 19.1 C 0 km/h
119 03-09-2004 23:43:58 18.9 C 12.64 g/m*3 18.9 C 0 km/h
120 03-09-2004 23:55:57 18.8 C 12.56 g/m*3 18.8 C 0 km/h
121 04-09-2004 00:07:58 18.6 C 12.57 g/m*3 18.6 C 0 km/h
122 04-09-2004 00:19:58 18.3 C 12.35 g/m*3 18.3 C 0 km/h
123 04-09-2004 00:31:57 18.2 C 12.43 g/m*3 18.2 C 0 km/h
124 04-09-2004 00:43:57 18.1 C 12.36 g/m*3 18.1 C 0 km/h
125 04-09-2004 00:55:58 18 C 12.44 g/m*3 18 C 0 km/h
Sensor: Nr:Datum:Temp:Abs-Feuchte:Windchill:Wind:
Aussen-T/F 126 04-09-2004 01:07:58 17.8 C 12.6 g/m*3 17.8 C 0 km/h
127 04-09-2004 01:19:58 17.7 C 12.52 g/m*3 17.7 C 0 km/h
128 04-09-2004 01:31:58 17.5 C 12.37 g/m*3 17.5 C 0 km/h
129 04-09-2004 01:43:58 17.5 C 12.37 g/m*3 17.5 C 0 km/h
130 04-09-2004 01:55:58 17.2 C 12.3 g/m*3 17.2 C 0 km/h
131 04-09-2004 02:07:58 17.1 C 12.23 g/m*3 17.1 C 0 km/h
132 04-09-2004 02:19:58 16.9 C 12.23 g/m*3 16.9 C 0 km/h
133 04-09-2004 02:31:58 16.8 C 12.15 g/m*3 16.8 C 0 km/h
134 04-09-2004 02:43:58 16.5 C 12.08 g/m*3 16.5 C 0 km/h
135 04-09-2004 02:56:00 16.5 C 12.08 g/m*3 16.5 C 0 km/h
136 04-09-2004 03:08:00 16.4 C 12 g/m*3 16.4 C 0 km/h
137 04-09-2004 03:20:59 16.3 C 11.93 g/m*3 16.3 C 0 km/h
138 04-09-2004 03:32:59 16.2 C 11.86 g/m*3 16.2 C 0 km/h
139 04-09-2004 03:44:59 16 C 11.72 g/m*3 16 C 0 km/h
140 04-09-2004 03:56:59 16 C 11.72 g/m*3 16 C 0 km/h
141 04-09-2004 04:08:59 15.9 C 11.78 g/m*3 15.9 C 0 km/h
142 04-09-2004 04:20:59 15.8 C 11.71 g/m*3 15.8 C 0 km/h
143 04-09-2004 04:32:59 15.6 C 11.44 g/m*3 15.6 C 0 km/h
144 04-09-2004 04:44:59 15.6 C 11.57 g/m*3 15.6 C 0 km/h
145 04-09-2004 04:57:00 15.4 C 11.43 g/m*3 15.4 C 0 km/h
146 04-09-2004 05:08:59 15.2 C 11.29 g/m*3 15.2 C 0 km/h
147 04-09-2004 05:20:59 15.2 C 11.29 g/m*3 15.2 C 0 km/h
148 04-09-2004 05:32:59 15.2 C 11.29 g/m*3 15.2 C 0 km/h
149 04-09-2004 05:44:58 15 C 11.28 g/m*3 15 C 0 km/h
150 04-09-2004 05:56:58 14.9 C 11.22 g/m*3 14.9 C 0 km/h
Sensor: Nr:Datum:Temp:Abs-Feuchte:Windchill:Wind:
Aussen-T/F 151 04-09-2004 06:08:58 14.7 C 11.21 g/m*3 14.7 C 0 km/h
152 04-09-2004 06:20:58 14.6 C 11.14 g/m*3 14.6 C 0 km/h
153 04-09-2004 06:32:59 14.7 C 11.21 g/m*3 14.7 C 0 km/h
154 04-09-2004 06:44:59 14.5 C 11.07 g/m*3 14.5 C 0 km/h
155 04-09-2004 06:56:59 14.2 C 10.99 g/m*3 14.2 C 0 km/h
156 04-09-2004 07:08:59 14.3 C 11.06 g/m*3 14.3 C 0 km/h
157 04-09-2004 07:20:59 14.3 C 11.06 g/m*3 14.3 C 0 km/h
158 04-09-2004 07:32:59 14.2 C 11.11 g/m*3 14.2 C 0 km/h
159 04-09-2004 07:44:59 14.5 C 11.32 g/m*3 14.5 C 0 km/h
160 04-09-2004 07:56:59 14.6 C 11.26 g/m*3 14.6 C 0 km/h
161 04-09-2004 08:08:59 15 C 11.41 g/m*3 15 C 0 km/h
162 04-09-2004 08:20:59 14.9 C 11.22 g/m*3 14.9 C 0 km/h
163 04-09-2004 08:32:58 15.4 C 11.43 g/m*3 15.4 C 0 km/h
164 04-09-2004 08:43:59 15.5 C 11.24 g/m*3 15.5 C 0 km/h
165 04-09-2004 08:55:59 15.4 C 11.04 g/m*3 15.4 C 0 km/h
166 04-09-2004 09:08:58 15.6 C 11.17 g/m*3 15.6 C 0 km/h
167 04-09-2004 09:20:58 16 C 11.31 g/m*3 16 C 0 km/h
168 04-09-2004 09:32:58 16.4 C 11.45 g/m*3 16.4 C 0 km/h
169 04-09-2004 09:44:58 16.7 C 11.37 g/m*3 16.7 C 0 km/h
170 04-09-2004 09:56:58 17.2 C 11.57 g/m*3 17.2 C 0 km/h
171 04-09-2004 10:08:58 17 C 11.43 g/m*3 17 C 0 km/h
172 04-09-2004 10:20:59 17.3 C 11.79 g/m*3 17.3 C 0 km/h
173 04-09-2004 10:32:59 17.8 C 11.99 g/m*3 17.8 C 0 km/h
174 04-09-2004 10:44:59 18.2 C 12.12 g/m*3 18.2 C 0 km/h
175 04-09-2004 10:56:59 18.7 C 12.33 g/m*3 18.7 C 0 km/h
Sensor: Nr:Datum:Temp:Abs-Feuchte:Windchill:Wind:
Aussen-T/F 176 04-09-2004 11:08:59 19.2 C 12.37 g/m*3 19.2 C 0 km/h
177 04-09-2004 11:20:59 19.8 C 12.47 g/m*3 19.8 C 0 km/h
178 04-09-2004 11:32:00 20.5 C 12.63 g/m*3 20.5 C 0 km/h
179 04-09-2004 11:44:00 21.3 C 12.12 g/m*3 21.3 C 0 km/h
180 04-09-2004 11:56:58 21.9 C 13.12 g/m*3 21.9 C 0 km/h
181 04-09-2004 12:08:58 22.6 C 12.86 g/m*3 22.6 C 0 km/h
182 04-09-2004 12:20:58 23.2 C 13.1 g/m*3 23.2 C 0 km/h
183 04-09-2004 12:32:58 23.6 C 13.4 g/m*3 23.6 C 0 km/h
184 04-09-2004 12:44:58 24 C 13.05 g/m*3 24 C 0 km/h
185 04-09-2004 12:56:58 24.6 C 13.95 g/m*3 24.6 C 0 km/h
186 04-09-2004 13:08:58 24.8 C 12.97 g/m*3 24.8 C 0 km/h
187 04-09-2004 13:20:58 25.4 C 13.18 g/m*3 25.4 C 0 km/h
188 04-09-2004 13:32:58 25.8 C 12.52 g/m*3 25.8 C 0 km/h
189 04-09-2004 13:44:58 26 C 12.17 g/m*3 26 C 0 km/h
190 04-09-2004 13:56:58 26.6 C 12.84 g/m*3 26.6 C 0 km/h
191 04-09-2004 14:08:58 27.2 C 12.49 g/m*3 27.2 C 0 km/h
192 04-09-2004 14:20:58 27.8 C 13.72 g/m*3 27.8 C 0 km/h
193 04-09-2004 14:32:58 28.2 C 12.65 g/m*3 28.2 C 0 km/h
194 04-09-2004 14:44:58 28.6 C 12.65 g/m*3 28.6 C 0 km/h
195 04-09-2004 14:56:58 29.4 C 13.21 g/m*3 29.4 C 0 km/h
196 04-09-2004 15:08:58 29.4 C 12.33 g/m*3 29.4 C 0 km/h
197 04-09-2004 15:20:58 30 C 12.13 g/m*3 30 C 0 km/h
198 04-09-2004 15:32:58 30.1 C 11.89 g/m*3 30.1 C 0 km/h
199 04-09-2004 15:44:58 30.2 C 11.96 g/m*3 30.2 C 0 km/h
200 04-09-2004 15:56:58 30.6 C 10.96 g/m*3 30.6 C 0 km/h
Sensor: Nr:Datum:Temp:Abs-Feuchte:Windchill:Wind:
Aussen-T/F 201 04-09-2004 16:08:57 30.6 C 10.65 g/m*3 30.6 C 0 km/h
202 04-09-2004 16:20:57 30.6 C 10.65 g/m*3 30.6 C 0 km/h
203 04-09-2004 16:32:57 30.7 C 11.34 g/m*3 30.7 C 0 km/h
204 04-09-2004 16:44:57 30.7 C 10.39 g/m*3 30.7 C 0 km/h
205 04-09-2004 16:56:57 30.8 C 10.13 g/m*3 30.8 C 0 km/h
206 04-09-2004 17:08:58 31 C 11.52 g/m*3 31 C 0 km/h
207 04-09-2004 17:20:58 31.2 C 11.32 g/m*3 31.2 C 0 km/h
208 04-09-2004 17:32:58 30.9 C 10.19 g/m*3 30.9 C 0 km/h
209 04-09-2004 17:44:58 30.9 C 10.82 g/m*3 30.9 C 0 km/h
210 04-09-2004 17:56:58 30 C 9.7 g/m*3 30 C 0 km/h
211 04-09-2004 18:08:58 30.1 C 10.67 g/m*3 30.1 C 0 km/h
212 04-09-2004 18:20:58 30.2 C 10.73 g/m*3 30.2 C 0 km/h
213 04-09-2004 18:32:58 30 C 11.22 g/m*3 30 C 0 km/h
214 04-09-2004 18:44:57 29.8 C 11.7 g/m*3 29.8 C 0 km/h
215 04-09-2004 18:56:57 29 C 11.49 g/m*3 29 C 0 km/h
216 04-09-2004 19:08:57 27.6 C 11.97 g/m*3 27.6 C 0 km/h
217 04-09-2004 19:20:57 26.9 C 12.29 g/m*3 26.9 C 0 km/h
218 04-09-2004 19:32:57 25.7 C 12.45 g/m*3 25.7 C 0 km/h
219 04-09-2004 19:44:57 24.8 C 12.52 g/m*3 24.8 C 0 km/h
220 04-09-2004 19:56:57 24.1 C 12.25 g/m*3 24.1 C 0 km/h
221 04-09-2004 20:08:57 23.3 C 11.92 g/m*3 23.3 C 0 km/h
222 04-09-2004 20:20:57 23.1 C 12.2 g/m*3 23.1 C 0 km/h
223 04-09-2004 20:32:57 22.6 C 12.25 g/m*3 22.6 C 0 km/h
224 04-09-2004 20:44:58 22.2 C 12.17 g/m*3 22.2 C 0 km/h
225 04-09-2004 20:56:58 22 C 12.42 g/m*3 22 C 0 km/h
Sensor: Nr:Datum:Temp:Abs-Feuchte:Windchill:Wind:
Aussen-T/F 226 04-09-2004 21:08:58 22.1 C 12.49 g/m*3 22.1 C 0 km/h
227 04-09-2004 21:20:58 21.7 C 12.78 g/m*3 21.7 C 0 km/h
228 04-09-2004 21:32:57 21.7 C 12.97 g/m*3 21.7 C 0 km/h
229 04-09-2004 21:44:57 21.4 C 12.94 g/m*3 21.4 C 0 km/h
230 04-09-2004 21:56:57 21.3 C 13.05 g/m*3 21.3 C 0 km/h
231 04-09-2004 22:08:57 20.9 C 12.93 g/m*3 20.9 C 0 km/h
232 04-09-2004 22:20:57 20.8 C 13.04 g/m*3 20.8 C 0 km/h
233 04-09-2004 22:32:57 20.6 C 13.07 g/m*3 20.6 C 0 km/h
234 04-09-2004 22:44:57 20.4 C 12.91 g/m*3 20.4 C 0 km/h
235 04-09-2004 22:56:57 20.3 C 13.01 g/m*3 20.3 C 0 km/h
236 04-09-2004 23:08:57 20 C 12.96 g/m*3 20 C 0 km/h
237 04-09-2004 23:20:57 19.8 C 13.15 g/m*3 19.8 C 0 km/h
238 04-09-2004 23:32:57 19.7 C 13.08 g/m*3 19.7 C 0 km/h
239 04-09-2004 23:44:57 19.4 C 12.85 g/m*3 19.4 C 0 km/h
240 04-09-2004 23:56:57 19.3 C 12.94 g/m*3 19.3 C 0 km/h
241 05-09-2004 00:08:57 19.1 C 12.95 g/m*3 19.1 C 0 km/h
242 05-09-2004 00:20:58 18.9 C 12.96 g/m*3 18.9 C 0 km/h
243 05-09-2004 00:32:57 18.8 C 13.05 g/m*3 18.8 C 0 km/h
244 05-09-2004 00:44:57 18.6 C 12.89 g/m*3 18.6 C 0 km/h
245 05-09-2004 00:56:57 18.5 C 12.82 g/m*3 18.5 C 0 km/h
246 05-09-2004 01:08:57 18.3 C 12.66 g/m*3 18.3 C 0 km/h
247 05-09-2004 01:20:56 18.2 C 12.59 g/m*3 18.2 C 0 km/h
248 05-09-2004 01:32:56 18.1 C 12.52 g/m*3 18.1 C 0 km/h
249 05-09-2004 01:44:56 17.9 C 12.67 g/m*3 17.9 C 0 km/h
250 05-09-2004 01:56:56 17.7 C 12.52 g/m*3 17.7 C 0 km/h
Sensor: Nr:Datum:Temp:Abs-Feuchte:Windchill:Wind:
Aussen-T/F 251 05-09-2004 02:08:56 17.6 C 12.45 g/m*3 17.6 C 0 km/h
252 05-09-2004 02:20:57 17.5 C 12.37 g/m*3 17.5 C 0 km/h
253 05-09-2004 02:32:57 17.3 C 12.23 g/m*3 17.3 C 0 km/h
254 05-09-2004 02:45:58 17.2 C 12.3 g/m*3 17.2 C 0 km/h
255 05-09-2004 02:57:58 17.1 C 12.08 g/m*3 17.1 C 0 km/h
256 05-09-2004 03:09:58 17 C 12.15 g/m*3 17 C 0 km/h
257 05-09-2004 03:21:58 16.7 C 12.22 g/m*3 16.7 C 0 km/h
258 05-09-2004 03:33:58 16.6 C 12.15 g/m*3 16.6 C 0 km/h
259 05-09-2004 03:45:58 16.6 C 12.01 g/m*3 16.6 C 0 km/h
260 05-09-2004 03:57:58 16.5 C 12.08 g/m*3 16.5 C 0 km/h
261 05-09-2004 04:09:58 16.4 C 12 g/m*3 16.4 C 0 km/h
262 05-09-2004 04:21:58 16.4 C 12 g/m*3 16.4 C 0 km/h
263 05-09-2004 04:33:58 16.2 C 11.86 g/m*3 16.2 C 0 km/h
264 05-09-2004 04:45:58 16 C 11.72 g/m*3 16 C 0 km/h
265 05-09-2004 04:57:58 15.9 C 11.78 g/m*3 15.9 C 0 km/h
266 05-09-2004 05:09:58 15.8 C 11.85 g/m*3 15.8 C 0 km/h
267 05-09-2004 05:21:58 15.8 C 11.85 g/m*3 15.8 C 0 km/h
268 05-09-2004 05:33:58 15.6 C 11.7 g/m*3 15.6 C 0 km/h
269 05-09-2004 05:45:58 15.5 C 11.63 g/m*3 15.5 C 0 km/h
270 05-09-2004 05:57:58 15.5 C 11.63 g/m*3 15.5 C 0 km/h
271 05-09-2004 06:09:58 15.3 C 11.36 g/m*3 15.3 C 0 km/h
272 05-09-2004 06:21:58 15.2 C 11.29 g/m*3 15.2 C 0 km/h
273 05-09-2004 06:33:58 15.1 C 11.35 g/m*3 15.1 C 0 km/h
274 05-09-2004 06:45:57 15.1 C 11.48 g/m*3 15.1 C 0 km/h
275 05-09-2004 06:57:57 15.2 C 11.55 g/m*3 15.2 C 0 km/h
Sensor: Nr:Datum:Temp:Abs-Feuchte:Windchill:Wind:
Aussen-T/F 276 05-09-2004 07:09:57 15.4 C 11.69 g/m*3 15.4 C 0 km/h
277 05-09-2004 07:21:58 15.6 C 11.7 g/m*3 15.6 C 0 km/h
278 05-09-2004 07:33:58 15.8 C 11.85 g/m*3 15.8 C 0 km/h
279 05-09-2004 07:45:58 15.9 C 12.05 g/m*3 15.9 C 0 km/h
280 05-09-2004 07:57:59 15.8 C 11.98 g/m*3 15.8 C 0 km/h
281 05-09-2004 08:09:58 16.1 C 12.2 g/m*3 16.1 C 0 km/h
282 05-09-2004 08:21:58 16.5 C 12.5 g/m*3 16.5 C 0 km/h
283 05-09-2004 08:33:58 16.8 C 12.44 g/m*3 16.8 C 0 km/h
284 05-09-2004 08:45:58 16.9 C 12.37 g/m*3 16.9 C 0 km/h
285 05-09-2004 08:57:58 17.1 C 12.37 g/m*3 17.1 C 0 km/h
286 05-09-2004 09:09:58 17.2 C 12.3 g/m*3 17.2 C 0 km/h
287 05-09-2004 09:21:57 17.4 C 12.45 g/m*3 17.4 C 0 km/h
288 05-09-2004 09:33:57 17.6 C 12.6 g/m*3 17.6 C 0 km/h
289 05-09-2004 09:45:57 17.7 C 12.52 g/m*3 17.7 C 0 km/h
290 05-09-2004 09:57:57 18.1 C 12.67 g/m*3 18.1 C 0 km/h
291 05-09-2004 10:09:57 18.3 C 12.66 g/m*3 18.3 C 0 km/h
292 05-09-2004 10:21:57 18.2 C 12.43 g/m*3 18.2 C 0 km/h
293 05-09-2004 10:33:57 18.1 C 12.98 g/m*3 18.1 C 0 km/h
294 05-09-2004 10:45:57 18.7 C 13.29 g/m*3 18.7 C 0 km/h
295 05-09-2004 10:57:57 19.6 C 13.51 g/m*3 19.6 C 0 km/h
296 05-09-2004 11:09:57 20.3 C 13.37 g/m*3 20.3 C 0 km/h
297 05-09-2004 11:21:58 21.2 C 13.53 g/m*3 21.2 C 0 km/h
298 05-09-2004 11:33:58 21.8 C 13.43 g/m*3 21.8 C 0 km/h
299 05-09-2004 11:45:57 22.3 C 13.62 g/m*3 22.3 C 0 km/h
300 05-09-2004 11:57:57 22.9 C 14.1 g/m*3 22.9 C 0 km/h
Sensor: Nr:Datum:Temp:Abs-Feuchte:Windchill:Wind:
Aussen-T/F 301 05-09-2004 12:09:57 23.5 C 14.38 g/m*3 23.5 C 0 km/h
302 05-09-2004 12:21:57 24.2 C 13.86 g/m*3 24.2 C 0 km/h
303 05-09-2004 12:33:57 24.6 C 14.18 g/m*3 24.6 C 0 km/h
304 05-09-2004 12:45:57 24.9 C 14.42 g/m*3 24.9 C 0 km/h
305 05-09-2004 12:57:57 25.1 C 14.12 g/m*3 25.1 C 0 km/h
306 05-09-2004 13:09:57 25.8 C 13.96 g/m*3 25.8 C 0 km/h
307 05-09-2004 13:21:57 26.6 C 13.84 g/m*3 26.6 C 0 km/h
308 05-09-2004 13:33:57 26.8 C 13.74 g/m*3 26.8 C 0 km/h
309 05-09-2004 13:45:57 27.5 C 12.17 g/m*3 27.5 C 0 km/h
310 05-09-2004 13:57:57 27.9 C 11.63 g/m*3 27.9 C 0 km/h
311 05-09-2004 14:09:57 28.2 C 11.27 g/m*3 28.2 C 0 km/h
312 05-09-2004 14:21:57 28.8 C 10.51 g/m*3 28.8 C 0 km/h
313 05-09-2004 14:33:56 29.4 C 10.57 g/m*3 29.4 C 0 km/h
314 05-09-2004 14:45:56 29.4 C 10.57 g/m*3 29.4 C 0 km/h
315 05-09-2004 14:57:56 29.9 C 11.46 g/m*3 29.9 C 0 km/h
316 05-09-2004 15:09:56 30.1 C 10.98 g/m*3 30.1 C 0 km/h
317 05-09-2004 15:21:57 30.3 C 10.17 g/m*3 30.3 C 0 km/h
318 05-09-2004 15:33:57 30.4 C 10.54 g/m*3 30.4 C 0 km/h
319 05-09-2004 15:45:57 30.3 C 10.48 g/m*3 30.3 C 0 km/h
320 05-09-2004 15:57:57 30 C 11.83 g/m*3 30 C 0 km/h
321 05-09-2004 16:09:57 30.4 C 9.92 g/m*3 30.4 C 0 km/h
322 05-09-2004 16:21:57 31 C 9.6 g/m*3 31 C 0 km/h
323 05-09-2004 16:33:57 31.3 C 9.76 g/m*3 31.3 C 0 km/h
324 05-09-2004 16:45:57 31.2 C 9.06 g/m*3 31.2 C 0 km/h
325 05-09-2004 16:57:57 31 C 9.92 g/m*3 31 C 0 km/h
Sensor: Nr:Datum:Temp:Abs-Feuchte:Windchill:Wind:
Aussen-T/F 326 05-09-2004 17:09:57 31 C 9.92 g/m*3 31 C 0 km/h
327 05-09-2004 17:21:56 31 C 9.92 g/m*3 31 C 0 km/h
328 05-09-2004 17:33:56 30.7 C 9.76 g/m*3 30.7 C 0 km/h
329 05-09-2004 17:45:56 30.8 C 9.81 g/m*3 30.8 C 0 km/h
330 05-09-2004 17:57:56 30.8 C 10.13 g/m*3 30.8 C 0 km/h
331 05-09-2004 18:09:56 30.7 C 10.39 g/m*3 30.7 C 0 km/h
332 05-09-2004 18:21:56 30.4 C 11.47 g/m*3 30.4 C 0 km/h
333 05-09-2004 18:33:56 30.1 C 11.59 g/m*3 30.1 C 0 km/h
334 05-09-2004 18:45:56 29.7 C 11.93 g/m*3 29.7 C 0 km/h
335 05-09-2004 18:57:57 29.3 C 11.68 g/m*3 29.3 C 0 km/h
336 05-09-2004 19:09:57 28.6 C 11.52 g/m*3 28.6 C 0 km/h
337 05-09-2004 19:21:57 27.6 C 11.17 g/m*3 27.6 C 0 km/h
338 05-09-2004 19:33:57 26.6 C 11.33 g/m*3 26.6 C 0 km/h
339 05-09-2004 19:45:56 25.6 C 10.95 g/m*3 25.6 C 0 km/h
340 05-09-2004 19:57:56 24.8 C 10.93 g/m*3 24.8 C 0 km/h
341 05-09-2004 20:09:56 24.2 C 10.78 g/m*3 24.2 C 0 km/h
342 05-09-2004 20:21:56 23.5 C 11 g/m*3 23.5 C 0 km/h
343 05-09-2004 20:33:56 22.9 C 11.04 g/m*3 22.9 C 0 km/h
344 05-09-2004 20:45:56 22.1 C 10.74 g/m*3 22.1 C 0 km/h
345 05-09-2004 20:57:56 22 C 10.87 g/m*3 22 C 0 km/h
346 05-09-2004 21:09:56 21.5 C 11.13 g/m*3 21.5 C 0 km/h
347 05-09-2004 21:21:56 21.3 C 11 g/m*3 21.3 C 0 km/h
348 05-09-2004 21:33:56 21 C 10.81 g/m*3 21 C 0 km/h
349 05-09-2004 21:45:56 20.9 C 11.29 g/m*3 20.9 C 0 km/h
350 05-09-2004 21:57:56 20.4 C 10.97 g/m*3 20.4 C 0 km/h
Sensor: Nr:Datum:Temp:Abs-Feuchte:Windchill:Wind:
Aussen-T/F 351 05-09-2004 22:09:56 20 C 11.41 g/m*3 20 C 0 km/h
352 05-09-2004 22:21:56 19.7 C 11.55 g/m*3 19.7 C 0 km/h
353 05-09-2004 22:33:55 19.5 C 11.41 g/m*3 19.5 C 0 km/h
354 05-09-2004 22:45:56 19.3 C 11.61 g/m*3 19.3 C 0 km/h
355 05-09-2004 22:57:56 19.1 C 11.64 g/m*3 19.1 C 0 km/h
356 05-09-2004 23:09:56 18.9 C 11.66 g/m*3 18.9 C 0 km/h
357 05-09-2004 23:21:56 18.6 C 11.46 g/m*3 18.6 C 0 km/h
358 05-09-2004 23:33:56 18.5 C 11.39 g/m*3 18.5 C 0 km/h
359 05-09-2004 23:45:56 18.3 C 11.41 g/m*3 18.3 C 0 km/h
360 05-09-2004 23:57:56 18.1 C 11.43 g/m*3 18.1 C 0 km/h
361 06-09-2004 00:09:56 18.2 C 11.35 g/m*3 18.2 C 0 km/h
362 06-09-2004 00:21:56 17.8 C 10.93 g/m*3 17.8 C 0 km/h
363 06-09-2004 00:33:55 17.5 C 11.03 g/m*3 17.5 C 0 km/h
364 06-09-2004 00:45:56 17.2 C 10.98 g/m*3 17.2 C 0 km/h
365 06-09-2004 00:57:56 17 C 10.71 g/m*3 17 C 0 km/h
366 06-09-2004 01:09:56 16.8 C 10.87 g/m*3 16.8 C 0 km/h
367 06-09-2004 01:21:56 16.5 C 10.81 g/m*3 16.5 C 0 km/h
368 06-09-2004 01:33:56 16.3 C 10.82 g/m*3 16.3 C 0 km/h
369 06-09-2004 01:45:56 16.1 C 10.69 g/m*3 16.1 C 0 km/h
370 06-09-2004 01:57:56 16 C 10.63 g/m*3 16 C 0 km/h
371 06-09-2004 02:09:56 15.9 C 10.7 g/m*3 15.9 C 0 km/h
372 06-09-2004 02:21:56 15.8 C 10.5 g/m*3 15.8 C 0 km/h
373 06-09-2004 02:33:55 15.7 C 10.57 g/m*3 15.7 C 0 km/h
374 06-09-2004 02:46:57 15.6 C 10.51 g/m*3 15.6 C 0 km/h
375 06-09-2004 02:58:57 15.4 C 10.38 g/m*3 15.4 C 0 km/h
Sensor: Nr:Datum:Temp:Abs-Feuchte:Windchill:Wind:
Aussen-T/F 376 06-09-2004 03:10:57 15.1 C 10.06 g/m*3 15.1 C 0 km/h
377 06-09-2004 03:22:57 14.9 C 10.2 g/m*3 14.9 C 0 km/h
378 06-09-2004 03:34:57 14.8 C 10.13 g/m*3 14.8 C 0 km/h
379 06-09-2004 03:46:57 14.6 C 10.01 g/m*3 14.6 C 0 km/h
380 06-09-2004 03:58:57 14.4 C 9.77 g/m*3 14.4 C 0 km/h
381 06-09-2004 04:10:57 14.4 C 9.89 g/m*3 14.4 C 0 km/h
382 06-09-2004 04:22:57 14.3 C 9.83 g/m*3 14.3 C 0 km/h
383 06-09-2004 04:34:57 14.1 C 9.71 g/m*3 14.1 C 0 km/h
384 06-09-2004 04:46:57 14.1 C 9.83 g/m*3 14.1 C 0 km/h
385 06-09-2004 04:58:57 13.8 C 9.65 g/m*3 13.8 C 0 km/h
386 06-09-2004 05:10:57 13.8 C 9.77 g/m*3 13.8 C 0 km/h
387 06-09-2004 05:22:56 13.8 C 9.77 g/m*3 13.8 C 0 km/h
388 06-09-2004 05:34:56 13.6 C 9.65 g/m*3 13.6 C 0 km/h
389 06-09-2004 05:46:56 13.6 C 9.65 g/m*3 13.6 C 0 km/h
390 06-09-2004 05:58:56 13.5 C 9.71 g/m*3 13.5 C 0 km/h
391 06-09-2004 06:10:56 13.4 C 9.65 g/m*3 13.4 C 0 km/h
392 06-09-2004 06:22:56 13.4 C 9.76 g/m*3 13.4 C 0 km/h
393 06-09-2004 06:34:57 13.1 C 9.59 g/m*3 13.1 C 0 km/h
394 06-09-2004 06:46:57 13.2 C 9.64 g/m*3 13.2 C 0 km/h
395 06-09-2004 06:58:57 13 C 9.64 g/m*3 13 C 0 km/h
396 06-09-2004 07:10:57 13 C 9.64 g/m*3 13 C 0 km/h
397 06-09-2004 07:22:57 12.9 C 9.81 g/m*3 12.9 C 0 km/h
398 06-09-2004 07:34:57 12.9 C 9.81 g/m*3 12.9 C 0 km/h
399 06-09-2004 07:46:57 12.9 C 9.81 g/m*3 12.9 C 0 km/h
400 06-09-2004 07:58:57 12.9 C 9.92 g/m*3 12.9 C 0 km/h
Sensor: Nr:Datum:Temp:Abs-Feuchte:Windchill:Wind:
Aussen-T/F 401 06-09-2004 08:10:56 13 C 9.87 g/m*3 13 C 0 km/h
402 06-09-2004 08:22:56 13.3 C 10.05 g/m*3 13.3 C 0 km/h
403 06-09-2004 08:34:56 13.3 C 10.05 g/m*3 13.3 C 0 km/h
404 06-09-2004 08:46:56 13.3 C 10.05 g/m*3 13.3 C 0 km/h
405 06-09-2004 08:58:56 13.7 C 10.3 g/m*3 13.7 C 0 km/h
406 06-09-2004 09:10:56 13.9 C 10.43 g/m*3 13.9 C 0 km/h
407 06-09-2004 09:22:56 14.2 C 10.5 g/m*3 14.2 C 0 km/h
408 06-09-2004 09:34:56 14.6 C 10.76 g/m*3 14.6 C 0 km/h
409 06-09-2004 09:46:56 15.2 C 10.9 g/m*3 15.2 C 0 km/h
410 06-09-2004 09:58:56 15.9 C 10.97 g/m*3 15.9 C 0 km/h
411 06-09-2004 10:10:56 16.5 C 11.09 g/m*3 16.5 C 0 km/h
412 06-09-2004 10:22:57 17 C 11.29 g/m*3 17 C 0 km/h
413 06-09-2004 10:34:57 17.5 C 11.48 g/m*3 17.5 C 0 km/h
414 06-09-2004 10:46:56 18.3 C 11.57 g/m*3 18.3 C 0 km/h
415 06-09-2004 10:58:56 18.8 C 11.76 g/m*3 18.8 C 0 km/h
416 06-09-2004 11:10:56 19.3 C 11.61 g/m*3 19.3 C 0 km/h
417 06-09-2004 11:22:56 19.8 C 11.79 g/m*3 19.8 C 0 km/h
418 06-09-2004 11:34:56 20.4 C 11.68 g/m*3 20.4 C 0 km/h
419 06-09-2004 11:46:56 21.4 C 11.62 g/m*3 21.4 C 0 km/h
420 06-09-2004 11:58:56 22.1 C 11.52 g/m*3 22.1 C 0 km/h
421 06-09-2004 12:10:56 22.7 C 11.52 g/m*3 22.7 C 0 km/h
422 06-09-2004 12:22:56 23 C 12.33 g/m*3 23 C 0 km/h
423 06-09-2004 12:34:56 23.2 C 11.23 g/m*3 23.2 C 0 km/h
424 06-09-2004 12:46:56 23.8 C 10.97 g/m*3 23.8 C 0 km/h
425 06-09-2004 12:58:56 24 C 10.01 g/m*3 24 C 0 km/h
Sensor: Nr:Datum:Temp:Abs-Feuchte:Windchill:Wind:
Aussen-T/F 426 06-09-2004 13:10:56 24.5 C 9.4 g/m*3 24.5 C 0 km/h
427 06-09-2004 13:22:56 24.8 C 9.33 g/m*3 24.8 C 0 km/h
428 06-09-2004 13:34:55 25.2 C 9.08 g/m*3 25.2 C 0 km/h
429 06-09-2004 13:46:55 25.8 C 9.63 g/m*3 25.8 C 0 km/h
430 06-09-2004 13:58:55 26.4 C 9.21 g/m*3 26.4 C 0 km/h
431 06-09-2004 14:10:55 26.5 C 9.01 g/m*3 26.5 C 0 km/h
432 06-09-2004 14:22:56 27.2 C 9.37 g/m*3 27.2 C 0 km/h
433 06-09-2004 14:34:56 27.4 C 8.42 g/m*3 27.4 C 0 km/h
434 06-09-2004 14:46:56 27.8 C 8.34 g/m*3 27.8 C 0 km/h
435 06-09-2004 14:58:56 28.4 C 8.9 g/m*3 28.4 C 0 km/h
436 06-09-2004 15:10:56 28.9 C 8.57 g/m*3 28.9 C 0 km/h
437 06-09-2004 15:22:56 29.4 C 8.51 g/m*3 29.4 C 0 km/h
438 06-09-2004 15:34:56 29.4 C 8.81 g/m*3 29.4 C 0 km/h
439 06-09-2004 15:46:56 29.5 C 8.56 g/m*3 29.5 C 0 km/h
440 06-09-2004 15:58:56 30 C 8.79 g/m*3 30 C 0 km/h
441 06-09-2004 16:10:56 30.3 C 8.63 g/m*3 30.3 C 0 km/h
442 06-09-2004 16:22:55 30.6 C 8.14 g/m*3 30.6 C 0 km/h
443 06-09-2004 16:34:55 30.3 C 8.63 g/m*3 30.3 C 0 km/h
444 06-09-2004 16:46:55 30.4 C 8.37 g/m*3 30.4 C 0 km/h
445 06-09-2004 16:58:55 30.6 C 8.46 g/m*3 30.6 C 0 km/h
446 06-09-2004 17:10:56 30.9 C 8.59 g/m*3 30.9 C 0 km/h
447 06-09-2004 17:22:55 30.7 C 8.19 g/m*3 30.7 C 0 km/h
448 06-09-2004 17:34:55 30.9 C 8.59 g/m*3 30.9 C 0 km/h
449 06-09-2004 17:46:55 30.6 C 8.46 g/m*3 30.6 C 0 km/h
450 06-09-2004 17:58:55 30.7 C 8.5 g/m*3 30.7 C 0 km/h
Sensor: Nr:Datum:Temp:Abs-Feuchte:Windchill:Wind:
Aussen-T/F 451 06-09-2004 18:10:56 30.7 C 9.45 g/m*3 30.7 C 0 km/h
452 06-09-2004 18:22:56 30.3 C 8.94 g/m*3 30.3 C 0 km/h
453 06-09-2004 18:34:56 30.1 C 9.45 g/m*3 30.1 C 0 km/h
454 06-09-2004 18:46:56 29.6 C 8.9 g/m*3 29.6 C 0 km/h
455 06-09-2004 18:58:56 29.1 C 10.11 g/m*3 29.1 C 0 km/h
456 06-09-2004 19:10:55 28.2 C 10.17 g/m*3 28.2 C 0 km/h
457 06-09-2004 19:22:55 27.3 C 10.2 g/m*3 27.3 C 0 km/h
458 06-09-2004 19:34:56 26.4 C 10.21 g/m*3 26.4 C 0 km/h
459 06-09-2004 19:46:55 25.2 C 10.24 g/m*3 25.2 C 0 km/h
460 06-09-2004 19:58:55 24.3 C 10.4 g/m*3 24.3 C 0 km/h
461 06-09-2004 20:10:55 23.7 C 10.91 g/m*3 23.7 C 0 km/h
462 06-09-2004 20:22:55 22.6 C 10.65 g/m*3 22.6 C 0 km/h
463 06-09-2004 20:34:55 22.1 C 10.54 g/m*3 22.1 C 0 km/h
464 06-09-2004 20:46:55 21.5 C 10.94 g/m*3 21.5 C 0 km/h
465 06-09-2004 20:58:55 21.3 C 10.81 g/m*3 21.3 C 0 km/h
466 06-09-2004 21:10:55 21.2 C 10.93 g/m*3 21.2 C 0 km/h
467 06-09-2004 21:22:55 20.9 C 11.11 g/m*3 20.9 C 0 km/h
468 06-09-2004 21:34:55 20.7 C 10.98 g/m*3 20.7 C 0 km/h
469 06-09-2004 21:46:55 20.4 C 10.61 g/m*3 20.4 C 0 km/h
470 06-09-2004 21:58:55 20 C 10.37 g/m*3 20 C 0 km/h
471 06-09-2004 22:10:55 20 C 10.71 g/m*3 20 C 0 km/h
472 06-09-2004 22:22:55 19.7 C 10.7 g/m*3 19.7 C 0 km/h
473 06-09-2004 22:34:55 19.5 C 10.74 g/m*3 19.5 C 0 km/h
474 06-09-2004 22:46:55 19.2 C 10.72 g/m*3 19.2 C 0 km/h
475 06-09-2004 22:58:55 19.1 C 10.66 g/m*3 19.1 C 0 km/h
Sensor: Nr:Datum:Temp:Abs-Feuchte:Windchill:Wind:
Aussen-T/F 476 06-09-2004 23:10:55 18.9 C 10.85 g/m*3 18.9 C 0 km/h
477 06-09-2004 23:22:55 18.6 C 10.82 g/m*3 18.6 C 0 km/h
478 06-09-2004 23:34:55 18.4 C 10.54 g/m*3 18.4 C 0 km/h
479 06-09-2004 23:46:55 18.1 C 10.97 g/m*3 18.1 C 0 km/h
480 06-09-2004 23:58:55 18.2 C 10.72 g/m*3 18.2 C 0 km/h
481 07-09-2004 00:10:55 18.3 C 11.1 g/m*3 18.3 C 0 km/h
482 07-09-2004 00:22:55 17.9 C 10.84 g/m*3 17.9 C 0 km/h
483 07-09-2004 00:34:55 17.6 C 10.65 g/m*3 17.6 C 0 km/h
484 07-09-2004 00:46:55 17.6 C 10.8 g/m*3 17.6 C 0 km/h
485 07-09-2004 00:58:56 17.5 C 10.73 g/m*3 17.5 C 0 km/h
486 07-09-2004 01:10:55 17.4 C 10.97 g/m*3 17.4 C 0 km/h
487 07-09-2004 01:22:55 17.3 C 10.9 g/m*3 17.3 C 0 km/h
488 07-09-2004 01:34:55 17.3 C 10.75 g/m*3 17.3 C 0 km/h
489 07-09-2004 01:46:55 17 C 10.56 g/m*3 17 C 0 km/h
490 07-09-2004 01:58:55 16.8 C 10.72 g/m*3 16.8 C 0 km/h
491 07-09-2004 02:10:55 16.5 C 10.53 g/m*3 16.5 C 0 km/h
492 07-09-2004 02:22:54 16.4 C 10.61 g/m*3 16.4 C 0 km/h
493 07-09-2004 02:34:54 16.1 C 10.42 g/m*3 16.1 C 0 km/h
494 07-09-2004 02:47:56 15.9 C 10.56 g/m*3 15.9 C 0 km/h
495 07-09-2004 02:59:56 15.8 C 10.5 g/m*3 15.8 C 0 km/h
496 07-09-2004 03:11:56 15.8 C 10.63 g/m*3 15.8 C 0 km/h
497 07-09-2004 03:23:56 15.6 C 10.64 g/m*3 15.6 C 0 km/h
498 07-09-2004 03:35:56 15.3 C 10.45 g/m*3 15.3 C 0 km/h
499 07-09-2004 03:47:56 15.2 C 10.64 g/m*3 15.2 C 0 km/h
500 07-09-2004 03:59:57 15.1 C 10.45 g/m*3 15.1 C 0 km/h
Sensor: Nr:Datum:Temp:Abs-Feuchte:Windchill:Wind:
Aussen-T/F 501 07-09-2004 04:11:56 14.9 C 10.45 g/m*3 14.9 C 0 km/h
502 07-09-2004 04:23:56 14.8 C 10.51 g/m*3 14.8 C 0 km/h
503 07-09-2004 04:35:56 14.7 C 10.45 g/m*3 14.7 C 0 km/h
504 07-09-2004 04:47:56 14.6 C 10.39 g/m*3 14.6 C 0 km/h
505 07-09-2004 04:59:56 14.5 C 10.45 g/m*3 14.5 C 0 km/h
506 07-09-2004 05:11:55 14.4 C 10.38 g/m*3 14.4 C 0 km/h
507 07-09-2004 05:23:55 14.3 C 10.32 g/m*3 14.3 C 0 km/h
508 07-09-2004 05:35:55 14.2 C 10.26 g/m*3 14.2 C 0 km/h
509 07-09-2004 05:47:55 14.2 C 10.26 g/m*3 14.2 C 0 km/h
510 07-09-2004 05:59:55 14.1 C 10.32 g/m*3 14.1 C 0 km/h
511 07-09-2004 06:11:55 14 C 10.25 g/m*3 14 C 0 km/h
512 07-09-2004 06:23:56 14 C 10.13 g/m*3 14 C 0 km/h
513 07-09-2004 06:35:56 14 C 10.25 g/m*3 14 C 0 km/h
514 07-09-2004 06:47:57 13.8 C 10.25 g/m*3 13.8 C 0 km/h
515 07-09-2004 06:59:58 13.8 C 10.25 g/m*3 13.8 C 0 km/h
516 07-09-2004 07:11:56 13.8 C 10.25 g/m*3 13.8 C 0 km/h
517 07-09-2004 07:23:55 13.7 C 10.18 g/m*3 13.7 C 0 km/h
518 07-09-2004 07:35:55 13.7 C 10.3 g/m*3 13.7 C 0 km/h
519 07-09-2004 07:47:55 14 C 10.37 g/m*3 14 C 0 km/h
520 07-09-2004 07:59:55 14 C 10.37 g/m*3 14 C 0 km/h
521 07-09-2004 08:11:55 14.1 C 10.32 g/m*3 14.1 C 0 km/h
522 07-09-2004 08:23:55 14.2 C 10.5 g/m*3 14.2 C 0 km/h
523 07-09-2004 08:35:55 14.3 C 10.57 g/m*3 14.3 C 0 km/h
524 07-09-2004 08:47:55 14.7 C 10.83 g/m*3 14.7 C 0 km/h
525 07-09-2004 08:59:55 15 C 10.77 g/m*3 15 C 0 km/h
Sensor: Nr:Datum:Temp:Abs-Feuchte:Windchill:Wind:
Aussen-T/F 526 07-09-2004 09:11:55 15.3 C 10.84 g/m*3 15.3 C 0 km/h
527 07-09-2004 09:23:55 15.6 C 11.04 g/m*3 15.6 C 0 km/h
528 07-09-2004 09:35:55 15.9 C 10.97 g/m*3 15.9 C 0 km/h
529 07-09-2004 09:47:56 16.3 C 10.82 g/m*3 16.3 C 0 km/h
530 07-09-2004 09:59:56 17.1 C 11.21 g/m*3 17.1 C 0 km/h
531 07-09-2004 10:11:56 17.8 C 11.38 g/m*3 17.8 C 0 km/h
532 07-09-2004 10:23:55 18.9 C 11.66 g/m*3 18.9 C 0 km/h
533 07-09-2004 10:35:55 20 C 11.23 g/m*3 20 C 0 km/h
534 07-09-2004 10:47:55 20.6 C 11.28 g/m*3 20.6 C 0 km/h
535 07-09-2004 10:59:55 21 C 11.91 g/m*3 21 C 0 km/h
536 07-09-2004 11:11:55 21.3 C 12.12 g/m*3 21.3 C 0 km/h
537 07-09-2004 11:23:55 21.4 C 12.19 g/m*3 21.4 C 0 km/h
538 07-09-2004 11:35:55 21.8 C 11.13 g/m*3 21.8 C 0 km/h
539 07-09-2004 11:47:55 22.1 C 10.93 g/m*3 22.1 C 0 km/h
540 07-09-2004 11:59:56 22.7 C 11.11 g/m*3 22.7 C 0 km/h
541 07-09-2004 12:11:55 23.3 C 11.08 g/m*3 23.3 C 0 km/h
542 07-09-2004 12:23:55 23.8 C 10.76 g/m*3 23.8 C 0 km/h
543 07-09-2004 12:35:55 24.2 C 10.34 g/m*3 24.2 C 0 km/h
544 07-09-2004 12:47:55 24.7 C 10.64 g/m*3 24.7 C 0 km/h
545 07-09-2004 12:59:55 25 C 10.59 g/m*3 25 C 0 km/h
546 07-09-2004 13:11:54 25.3 C 10.3 g/m*3 25.3 C 0 km/h
547 07-09-2004 13:23:54 25.6 C 9.28 g/m*3 25.6 C 0 km/h
548 07-09-2004 13:35:55 26.1 C 9.55 g/m*3 26.1 C 0 km/h
549 07-09-2004 13:47:55 26.6 C 9.82 g/m*3 26.6 C 0 km/h
550 07-09-2004 13:59:55 26.9 C 9.21 g/m*3 26.9 C 0 km/h
Sensor: Nr:Datum:Temp:Abs-Feuchte:Windchill:Wind:
Aussen-T/F 551 07-09-2004 14:11:55 27.3 C 9.16 g/m*3 27.3 C 0 km/h
552 07-09-2004 14:23:55 27.7 C 9.36 g/m*3 27.7 C 0 km/h
553 07-09-2004 14:35:55 28.2 C 8.52 g/m*3 28.2 C 0 km/h
554 07-09-2004 14:47:55 28.7 C 9.32 g/m*3 28.7 C 0 km/h
555 07-09-2004 14:59:55 28.9 C 9.14 g/m*3 28.9 C 0 km/h
556 07-09-2004 15:11:55 29.3 C 9.05 g/m*3 29.3 C 0 km/h
557 07-09-2004 15:23:55 29.6 C 8.9 g/m*3 29.6 C 0 km/h
558 07-09-2004 15:35:55 29.9 C 8.75 g/m*3 29.9 C 0 km/h
559 07-09-2004 15:47:54 30.3 C 8.63 g/m*3 30.3 C 0 km/h
560 07-09-2004 15:59:54 30.4 C 8.68 g/m*3 30.4 C 0 km/h
561 07-09-2004 16:11:54 30.4 C 8.37 g/m*3 30.4 C 0 km/h
562 07-09-2004 16:23:54 30.3 C 8.01 g/m*3 30.3 C 0 km/h
563 07-09-2004 16:35:54 30.2 C 8.28 g/m*3 30.2 C 0 km/h
564 07-09-2004 16:47:54 30.4 C 8.37 g/m*3 30.4 C 0 km/h
565 07-09-2004 16:59:54 30.6 C 8.46 g/m*3 30.6 C 0 km/h
566 07-09-2004 17:11:54 30.7 C 8.19 g/m*3 30.7 C 0 km/h
567 07-09-2004 17:23:54 30.7 C 7.87 g/m*3 30.7 C 0 km/h
568 07-09-2004 17:35:55 30.6 C 7.83 g/m*3 30.6 C 0 km/h
569 07-09-2004 17:47:55 30.3 C 8.01 g/m*3 30.3 C 0 km/h
570 07-09-2004 17:59:55 30.4 C 8.37 g/m*3 30.4 C 0 km/h
571 07-09-2004 18:11:55 30.4 C 8.68 g/m*3 30.4 C 0 km/h
572 07-09-2004 18:23:55 30.3 C 8.32 g/m*3 30.3 C 0 km/h
573 07-09-2004 18:35:54 30.2 C 9.2 g/m*3 30.2 C 0 km/h
574 07-09-2004 18:47:54 29.8 C 9.6 g/m*3 29.8 C 0 km/h
575 07-09-2004 18:59:54 29.6 C 9.79 g/m*3 29.6 C 0 km/h
Sensor: Nr:Datum:Temp:Abs-Feuchte:Windchill:Wind:
Aussen-T/F 576 07-09-2004 19:11:54 28.8 C 9.94 g/m*3 28.8 C 0 km/h
577 07-09-2004 19:23:54 28.1 C 9.57 g/m*3 28.1 C 0 km/h
578 07-09-2004 19:35:54 26.7 C 9.87 g/m*3 26.7 C 0 km/h
579 07-09-2004 19:47:54 25.7 C 10.06 g/m*3 25.7 C 0 km/h
580 07-09-2004 19:59:54 24.7 C 9.96 g/m*3 24.7 C 0 km/h
581 07-09-2004 20:11:54 24 C 10.44 g/m*3 24 C 0 km/h
582 07-09-2004 20:23:54 23.4 C 10.72 g/m*3 23.4 C 0 km/h
583 07-09-2004 20:35:54 22.9 C 11.04 g/m*3 22.9 C 0 km/h
584 07-09-2004 20:47:54 22.5 C 10.79 g/m*3 22.5 C 0 km/h
585 07-09-2004 20:59:54 22.1 C 10.93 g/m*3 22.1 C 0 km/h
586 07-09-2004 21:11:54 21.8 C 11.13 g/m*3 21.8 C 0 km/h
587 07-09-2004 21:23:53 21.4 C 10.69 g/m*3 21.4 C 0 km/h
588 07-09-2004 21:35:54 21.1 C 10.87 g/m*3 21.1 C 0 km/h
589 07-09-2004 21:47:54 20.8 C 10.68 g/m*3 20.8 C 0 km/h
590 07-09-2004 21:59:54 20.5 C 10.68 g/m*3 20.5 C 0 km/h
591 07-09-2004 22:11:54 20.3 C 10.73 g/m*3 20.3 C 0 km/h
592 07-09-2004 22:23:54 20 C 10.71 g/m*3 20 C 0 km/h
593 07-09-2004 22:35:54 19.6 C 10.8 g/m*3 19.6 C 0 km/h
594 07-09-2004 22:47:54 19.4 C 11.01 g/m*3 19.4 C 0 km/h
595 07-09-2004 22:59:54 19.3 C 10.95 g/m*3 19.3 C 0 km/h
596 07-09-2004 23:11:54 19.3 C 11.11 g/m*3 19.3 C 0 km/h
597 07-09-2004 23:23:54 18.9 C 10.85 g/m*3 18.9 C 0 km/h
598 07-09-2004 23:35:54 18.8 C 11.11 g/m*3 18.8 C 0 km/h
599 07-09-2004 23:47:54 18.8 C 11.11 g/m*3 18.8 C 0 km/h
600 07-09-2004 23:59:54 18.6 C 11.14 g/m*3 18.6 C 0 km/h

Legende:
   Min
   Max


Maximal/Minimal-Werte vom 03.09.2004 - 07.09.2004

Sensor Min Max Avg
Temp
(Aussen-T/F)
12.7 °C
03-09-2004  05:43:00
31.3 °C
05-09-2004  16:33:57
20.83 °C
Abs-Feuchte
(Aussen-T/F)
7.83 g/m*3
07-09-2004  17:35:55
14.42 g/m*3
05-09-2004  12:45:57
11.08 g/m*3
Windchill
(Aussen-T/F)
12.7 C
03-09-2004  05:43:00
31.3 C
05-09-2004  16:33:57
20.8 C

Die Daten stammen von einer Davis Vantage Pro 2 Wetter-Station und werden unter Linux mit der Software wview2wettercgi und aufbereitet. Alle Angaben erfolgen ohne Gewähr für ihre Vollständigkeit oder Richtigkeit.
Kontakt: Rainer Krienke krienke@uni-koblenz.de . Meine Webseiten an der Uni Koblenz oder privat.
Version: $Revision: 0.78 $